sensor_id;sensor_type;location;lat;lon;timestamp;P1;P2;P0
74880;PMS5003;63427;49.654;6.596;2023-02-15T00:00:19;51;49;
74880;PMS5003;63427;49.654;6.596;2023-02-15T00:02:44;56;54;
74880;PMS5003;63427;49.654;6.596;2023-02-15T00:05:10;50;48;
74880;PMS5003;63427;49.654;6.596;2023-02-15T00:07:36;57;56;
74880;PMS5003;63427;49.654;6.596;2023-02-15T00:10:02;51;49;
74880;PMS5003;63427;49.654;6.596;2023-02-15T00:12:27;50;48;
74880;PMS5003;63427;49.654;6.596;2023-02-15T00:14:53;58;55;
74880;PMS5003;63427;49.654;6.596;2023-02-15T00:17:18;56;53;
74880;PMS5003;63427;49.654;6.596;2023-02-15T00:19:43;55;51;
74880;PMS5003;63427;49.654;6.596;2023-02-15T00:22:08;60;58;
74880;PMS5003;63427;49.654;6.596;2023-02-15T00:24:34;49;45;
74880;PMS5003;63427;49.654;6.596;2023-02-15T00:26:59;59;55;
74880;PMS5003;63427;49.654;6.596;2023-02-15T00:29:24;53;50;
74880;PMS5003;63427;49.654;6.596;2023-02-15T00:31:50;54;52;
74880;PMS5003;63427;49.654;6.596;2023-02-15T00:34:17;57;54;
74880;PMS5003;63427;49.654;6.596;2023-02-15T00:36:41;53;50;
74880;PMS5003;63427;49.654;6.596;2023-02-15T00:39:06;46;44;
74880;PMS5003;63427;49.654;6.596;2023-02-15T00:41:32;54;52;
74880;PMS5003;63427;49.654;6.596;2023-02-15T00:43:57;54;52;
74880;PMS5003;63427;49.654;6.596;2023-02-15T00:46:22;76;70;
74880;PMS5003;63427;49.654;6.596;2023-02-15T00:48:47;53;48;
74880;PMS5003;63427;49.654;6.596;2023-02-15T00:51:12;50;49;
74880;PMS5003;63427;49.654;6.596;2023-02-15T00:53:37;59;53;
74880;PMS5003;63427;49.654;6.596;2023-02-15T00:56:03;66;63;
74880;PMS5003;63427;49.654;6.596;2023-02-15T00:58:28;58;57;
74880;PMS5003;63427;49.654;6.596;2023-02-15T01:00:53;63;58;
74880;PMS5003;63427;49.654;6.596;2023-02-15T01:03:19;55;52;
74880;PMS5003;63427;49.654;6.596;2023-02-15T01:05:44;75;70;
74880;PMS5003;63427;49.654;6.596;2023-02-15T01:08:09;75;69;
74880;PMS5003;63427;49.654;6.596;2023-02-15T01:10:35;67;63;
74880;PMS5003;63427;49.654;6.596;2023-02-15T01:13:00;61;57;
74880;PMS5003;63427;49.654;6.596;2023-02-15T01:15:25;59;58;
74880;PMS5003;63427;49.654;6.596;2023-02-15T01:17:51;58;54;
74880;PMS5003;63427;49.654;6.596;2023-02-15T01:20:16;55;53;
74880;PMS5003;63427;49.654;6.596;2023-02-15T01:22:41;66;61;
74880;PMS5003;63427;49.654;6.596;2023-02-15T01:25:06;55;53;
74880;PMS5003;63427;49.654;6.596;2023-02-15T01:27:31;59;55;
74880;PMS5003;63427;49.654;6.596;2023-02-15T01:29:57;68;66;
74880;PMS5003;63427;49.654;6.596;2023-02-15T01:32:23;58;57;
74880;PMS5003;63427;49.654;6.596;2023-02-15T01:34:48;66;64;
74880;PMS5003;63427;49.654;6.596;2023-02-15T01:37:14;57;54;
74880;PMS5003;63427;49.654;6.596;2023-02-15T01:39:39;49;48;
74880;PMS5003;63427;49.654;6.596;2023-02-15T01:42:04;66;61;
74880;PMS5003;63427;49.654;6.596;2023-02-15T01:46:55;67;64;
74880;PMS5003;63427;49.654;6.596;2023-02-15T01:49:21;56;54;
74880;PMS5003;63427;49.654;6.596;2023-02-15T01:51:47;60;56;
74880;PMS5003;63427;49.654;6.596;2023-02-15T01:54:13;67;61;
74880;PMS5003;63427;49.654;6.596;2023-02-15T01:56:37;61;58;
74880;PMS5003;63427;49.654;6.596;2023-02-15T01:59:03;61;57;
74880;PMS5003;63427;49.654;6.596;2023-02-15T02:01:28;60;55;
74880;PMS5003;63427;49.654;6.596;2023-02-15T02:03:56;70;67;
74880;PMS5003;63427;49.654;6.596;2023-02-15T02:06:20;65;62;
74880;PMS5003;63427;49.654;6.596;2023-02-15T02:08:45;74;71;
74880;PMS5003;63427;49.654;6.596;2023-02-15T02:11:11;71;66;
74880;PMS5003;63427;49.654;6.596;2023-02-15T02:13:36;61;59;
74880;PMS5003;63427;49.654;6.596;2023-02-15T02:16:04;71;65;
74880;PMS5003;63427;49.654;6.596;2023-02-15T02:18:31;67;64;
74880;PMS5003;63427;49.654;6.596;2023-02-15T02:23:24;60;57;
74880;PMS5003;63427;49.654;6.596;2023-02-15T02:25:48;60;55;
74880;PMS5003;63427;49.654;6.596;2023-02-15T02:28:13;55;53;
74880;PMS5003;63427;49.654;6.596;2023-02-15T02:30:43;67;61;
74880;PMS5003;63427;49.654;6.596;2023-02-15T02:33:03;70;64;
74880;PMS5003;63427;49.654;6.596;2023-02-15T02:35:26;62;59;
74880;PMS5003;63427;49.654;6.596;2023-02-15T02:37:53;73;70;
74880;PMS5003;63427;49.654;6.596;2023-02-15T02:40:16;69;66;
74880;PMS5003;63427;49.654;6.596;2023-02-15T02:42:41;62;59;
74880;PMS5003;63427;49.654;6.596;2023-02-15T02:45:07;69;68;
74880;PMS5003;63427;49.654;6.596;2023-02-15T02:47:32;59;56;
74880;PMS5003;63427;49.654;6.596;2023-02-15T02:49:58;65;57;
74880;PMS5003;63427;49.654;6.596;2023-02-15T02:54:49;58;53;
74880;PMS5003;63427;49.654;6.596;2023-02-15T02:57:14;65;63;
74880;PMS5003;63427;49.654;6.596;2023-02-15T02:59:41;52;50;
74880;PMS5003;63427;49.654;6.596;2023-02-15T03:02:08;54;53;
74880;PMS5003;63427;49.654;6.596;2023-02-15T03:04:32;57;54;
74880;PMS5003;63427;49.654;6.596;2023-02-15T03:06:57;55;53;
74880;PMS5003;63427;49.654;6.596;2023-02-15T03:09:22;51;46;
74880;PMS5003;63427;49.654;6.596;2023-02-15T03:11:47;57;53;
74880;PMS5003;63427;49.654;6.596;2023-02-15T03:14:13;66;63;
74880;PMS5003;63427;49.654;6.596;2023-02-15T03:16:38;60;59;
74880;PMS5003;63427;49.654;6.596;2023-02-15T03:19:05;65;61;
74880;PMS5003;63427;49.654;6.596;2023-02-15T03:21:31;59;55;
74880;PMS5003;63427;49.654;6.596;2023-02-15T03:23:56;55;54;
74880;PMS5003;63427;49.654;6.596;2023-02-15T03:26:20;65;61;
74880;PMS5003;63427;49.654;6.596;2023-02-15T03:28:46;55;54;
74880;PMS5003;63427;49.654;6.596;2023-02-15T03:31:11;54;51;
74880;PMS5003;63427;49.654;6.596;2023-02-15T03:33:37;57;53;
74880;PMS5003;63427;49.654;6.596;2023-02-15T03:36:02;59;57;
74880;PMS5003;63427;49.654;6.596;2023-02-15T03:38:29;69;63;
74880;PMS5003;63427;49.654;6.596;2023-02-15T03:40:52;57;57;
74880;PMS5003;63427;49.654;6.596;2023-02-15T03:43:25;58;57;
74880;PMS5003;63427;49.654;6.596;2023-02-15T03:45:44;68;62;
74880;PMS5003;63427;49.654;6.596;2023-02-15T03:48:09;54;51;
74880;PMS5003;63427;49.654;6.596;2023-02-15T03:50:35;60;54;
74880;PMS5003;63427;49.654;6.596;2023-02-15T03:53:00;57;56;
74880;PMS5003;63427;49.654;6.596;2023-02-15T03:55:25;59;55;
74880;PMS5003;63427;49.654;6.596;2023-02-15T03:57:50;55;53;
74880;PMS5003;63427;49.654;6.596;2023-02-15T04:00:17;60;55;
74880;PMS5003;63427;49.654;6.596;2023-02-15T04:02:44;52;49;
74880;PMS5003;63427;49.654;6.596;2023-02-15T04:05:07;52;50;
74880;PMS5003;63427;49.654;6.596;2023-02-15T04:07:33;52;48;
74880;PMS5003;63427;49.654;6.596;2023-02-15T04:09:58;53;53;
74880;PMS5003;63427;49.654;6.596;2023-02-15T04:12:23;57;53;
74880;PMS5003;63427;49.654;6.596;2023-02-15T04:14:50;49;47;
74880;PMS5003;63427;49.654;6.596;2023-02-15T04:17:14;54;49;
74880;PMS5003;63427;49.654;6.596;2023-02-15T04:19:40;56;54;
74880;PMS5003;63427;49.654;6.596;2023-02-15T04:22:06;50;48;
74880;PMS5003;63427;49.654;6.596;2023-02-15T04:24:31;52;49;
74880;PMS5003;63427;49.654;6.596;2023-02-15T04:26:57;47;46;
74880;PMS5003;63427;49.654;6.596;2023-02-15T04:29:22;49;48;
74880;PMS5003;63427;49.654;6.596;2023-02-15T04:31:47;45;43;
74880;PMS5003;63427;49.654;6.596;2023-02-15T04:34:13;54;53;
74880;PMS5003;63427;49.654;6.596;2023-02-15T04:36:38;55;53;
74880;PMS5003;63427;49.654;6.596;2023-02-15T04:39:04;52;50;
74880;PMS5003;63427;49.654;6.596;2023-02-15T04:41:29;48;45;
74880;PMS5003;63427;49.654;6.596;2023-02-15T04:43:55;50;47;
74880;PMS5003;63427;49.654;6.596;2023-02-15T04:46:20;48;48;
74880;PMS5003;63427;49.654;6.596;2023-02-15T04:48:46;50;50;
74880;PMS5003;63427;49.654;6.596;2023-02-15T04:51:11;52;50;
74880;PMS5003;63427;49.654;6.596;2023-02-15T04:53:37;48;47;
74880;PMS5003;63427;49.654;6.596;2023-02-15T04:56:02;49;48;
74880;PMS5003;63427;49.654;6.596;2023-02-15T04:58:28;46;43;
74880;PMS5003;63427;49.654;6.596;2023-02-15T05:00:54;52;52;
74880;PMS5003;63427;49.654;6.596;2023-02-15T05:03:19;49;48;
74880;PMS5003;63427;49.654;6.596;2023-02-15T05:05:44;56;53;
74880;PMS5003;63427;49.654;6.596;2023-02-15T05:08:10;52;48;
74880;PMS5003;63427;49.654;6.596;2023-02-15T05:10:36;50;47;
74880;PMS5003;63427;49.654;6.596;2023-02-15T05:13:02;57;56;
74880;PMS5003;63427;49.654;6.596;2023-02-15T05:15:27;58;57;
74880;PMS5003;63427;49.654;6.596;2023-02-15T05:17:52;59;55;
74880;PMS5003;63427;49.654;6.596;2023-02-15T05:20:17;53;52;
74880;PMS5003;63427;49.654;6.596;2023-02-15T05:22:42;55;51;
74880;PMS5003;63427;49.654;6.596;2023-02-15T05:25:08;49;47;
74880;PMS5003;63427;49.654;6.596;2023-02-15T05:27:32;52;49;
74880;PMS5003;63427;49.654;6.596;2023-02-15T05:29:58;48;45;
74880;PMS5003;63427;49.654;6.596;2023-02-15T05:32:23;48;47;
74880;PMS5003;63427;49.654;6.596;2023-02-15T05:34:48;47;46;
74880;PMS5003;63427;49.654;6.596;2023-02-15T05:37:14;53;48;
74880;PMS5003;63427;49.654;6.596;2023-02-15T05:39:39;51;48;
74880;PMS5003;63427;49.654;6.596;2023-02-15T05:42:04;54;48;
74880;PMS5003;63427;49.654;6.596;2023-02-15T05:44:30;56;54;
74880;PMS5003;63427;49.654;6.596;2023-02-15T05:46:55;63;59;
74880;PMS5003;63427;49.654;6.596;2023-02-15T05:49:21;51;47;
74880;PMS5003;63427;49.654;6.596;2023-02-15T05:51:47;48;45;
74880;PMS5003;63427;49.654;6.596;2023-02-15T05:54:12;48;46;
74880;PMS5003;63427;49.654;6.596;2023-02-15T05:56:37;47;45;
74880;PMS5003;63427;49.654;6.596;2023-02-15T05:59:02;53;49;
74880;PMS5003;63427;49.654;6.596;2023-02-15T06:01:28;54;50;
74880;PMS5003;63427;49.654;6.596;2023-02-15T06:03:53;40;40;
74880;PMS5003;63427;49.654;6.596;2023-02-15T06:06:18;49;47;
74880;PMS5003;63427;49.654;6.596;2023-02-15T06:08:44;52;47;
74880;PMS5003;63427;49.654;6.596;2023-02-15T06:11:09;51;47;
74880;PMS5003;63427;49.654;6.596;2023-02-15T06:13:35;46;44;
74880;PMS5003;63427;49.654;6.596;2023-02-15T06:16:00;41;38;
74880;PMS5003;63427;49.654;6.596;2023-02-15T06:18:25;46;43;
74880;PMS5003;63427;49.654;6.596;2023-02-15T06:20:52;54;50;
74880;PMS5003;63427;49.654;6.596;2023-02-15T06:23:16;52;50;
74880;PMS5003;63427;49.654;6.596;2023-02-15T06:25:42;45;45;
74880;PMS5003;63427;49.654;6.596;2023-02-15T06:28:07;53;50;
74880;PMS5003;63427;49.654;6.596;2023-02-15T06:30:33;48;48;
74880;PMS5003;63427;49.654;6.596;2023-02-15T06:32:58;47;45;
74880;PMS5003;63427;49.654;6.596;2023-02-15T06:35:24;51;49;
74880;PMS5003;63427;49.654;6.596;2023-02-15T06:37:49;49;46;
74880;PMS5003;63427;49.654;6.596;2023-02-15T06:40:15;48;46;
74880;PMS5003;63427;49.654;6.596;2023-02-15T06:42:40;50;48;
74880;PMS5003;63427;49.654;6.596;2023-02-15T06:45:05;47;47;
74880;PMS5003;63427;49.654;6.596;2023-02-15T06:47:30;52;47;
74880;PMS5003;63427;49.654;6.596;2023-02-15T06:49:56;46;43;
74880;PMS5003;63427;49.654;6.596;2023-02-15T06:52:21;53;49;
74880;PMS5003;63427;49.654;6.596;2023-02-15T06:54:46;41;39;
74880;PMS5003;63427;49.654;6.596;2023-02-15T06:57:12;50;49;
74880;PMS5003;63427;49.654;6.596;2023-02-15T06:59:37;49;49;
74880;PMS5003;63427;49.654;6.596;2023-02-15T07:02:03;43;40;
74880;PMS5003;63427;49.654;6.596;2023-02-15T07:04:28;42;40;
74880;PMS5003;63427;49.654;6.596;2023-02-15T07:06:53;45;43;
74880;PMS5003;63427;49.654;6.596;2023-02-15T07:09:19;44;43;
74880;PMS5003;63427;49.654;6.596;2023-02-15T07:11:44;46;45;
74880;PMS5003;63427;49.654;6.596;2023-02-15T07:14:10;51;50;
74880;PMS5003;63427;49.654;6.596;2023-02-15T07:16:35;43;39;
74880;PMS5003;63427;49.654;6.596;2023-02-15T07:19:01;50;47;
74880;PMS5003;63427;49.654;6.596;2023-02-15T07:21:26;44;40;
74880;PMS5003;63427;49.654;6.596;2023-02-15T07:23:55;45;44;
74880;PMS5003;63427;49.654;6.596;2023-02-15T07:26:18;37;36;
74880;PMS5003;63427;49.654;6.596;2023-02-15T07:28:43;44;41;
74880;PMS5003;63427;49.654;6.596;2023-02-15T07:31:08;36;34;
74880;PMS5003;63427;49.654;6.596;2023-02-15T07:33:34;33;33;
74880;PMS5003;63427;49.654;6.596;2023-02-15T07:36:00;46;45;
74880;PMS5003;63427;49.654;6.596;2023-02-15T07:38:25;39;37;
74880;PMS5003;63427;49.654;6.596;2023-02-15T07:40:50;47;45;
74880;PMS5003;63427;49.654;6.596;2023-02-15T07:43:16;41;40;
74880;PMS5003;63427;49.654;6.596;2023-02-15T07:45:41;39;39;
74880;PMS5003;63427;49.654;6.596;2023-02-15T07:48:06;40;38;
74880;PMS5003;63427;49.654;6.596;2023-02-15T07:50:32;48;43;
74880;PMS5003;63427;49.654;6.596;2023-02-15T07:52:57;38;37;
74880;PMS5003;63427;49.654;6.596;2023-02-15T07:55:23;38;37;
74880;PMS5003;63427;49.654;6.596;2023-02-15T07:57:48;40;40;
74880;PMS5003;63427;49.654;6.596;2023-02-15T08:00:13;40;38;
74880;PMS5003;63427;49.654;6.596;2023-02-15T08:02:38;40;39;
74880;PMS5003;63427;49.654;6.596;2023-02-15T08:05:04;43;40;
74880;PMS5003;63427;49.654;6.596;2023-02-15T08:07:29;42;40;
74880;PMS5003;63427;49.654;6.596;2023-02-15T08:09:54;38;38;
74880;PMS5003;63427;49.654;6.596;2023-02-15T08:12:20;46;45;
74880;PMS5003;63427;49.654;6.596;2023-02-15T08:14:45;50;45;
74880;PMS5003;63427;49.654;6.596;2023-02-15T08:17:10;45;43;
74880;PMS5003;63427;49.654;6.596;2023-02-15T08:19:36;41;40;
74880;PMS5003;63427;49.654;6.596;2023-02-15T08:22:02;47;43;
74880;PMS5003;63427;49.654;6.596;2023-02-15T08:24:27;40;39;
74880;PMS5003;63427;49.654;6.596;2023-02-15T08:26:52;46;44;
74880;PMS5003;63427;49.654;6.596;2023-02-15T08:29:19;44;42;
74880;PMS5003;63427;49.654;6.596;2023-02-15T08:31:43;44;42;
74880;PMS5003;63427;49.654;6.596;2023-02-15T08:34:09;48;43;
74880;PMS5003;63427;49.654;6.596;2023-02-15T08:36:35;42;41;
74880;PMS5003;63427;49.654;6.596;2023-02-15T08:39:02;47;47;
74880;PMS5003;63427;49.654;6.596;2023-02-15T08:41:27;36;35;
74880;PMS5003;63427;49.654;6.596;2023-02-15T08:43:52;42;40;
74880;PMS5003;63427;49.654;6.596;2023-02-15T08:46:18;50;49;
74880;PMS5003;63427;49.654;6.596;2023-02-15T08:48:43;45;42;
74880;PMS5003;63427;49.654;6.596;2023-02-15T08:51:09;50;45;
74880;PMS5003;63427;49.654;6.596;2023-02-15T08:53:34;45;43;
74880;PMS5003;63427;49.654;6.596;2023-02-15T08:55:59;41;39;
74880;PMS5003;63427;49.654;6.596;2023-02-15T08:58:24;48;45;
74880;PMS5003;63427;49.654;6.596;2023-02-15T09:00:50;54;51;
74880;PMS5003;63427;49.654;6.596;2023-02-15T09:03:15;51;49;
74880;PMS5003;63427;49.654;6.596;2023-02-15T09:05:41;45;44;
74880;PMS5003;63427;49.654;6.596;2023-02-15T09:08:06;46;42;
74880;PMS5003;63427;49.654;6.596;2023-02-15T09:10:31;98;95;
74880;PMS5003;63427;49.654;6.596;2023-02-15T09:12:56;83;77;
74880;PMS5003;63427;49.654;6.596;2023-02-15T09:15:21;49;47;
74880;PMS5003;63427;49.654;6.596;2023-02-15T09:17:47;50;46;
74880;PMS5003;63427;49.654;6.596;2023-02-15T09:20:13;47;44;
74880;PMS5003;63427;49.654;6.596;2023-02-15T09:22:38;50;48;
74880;PMS5003;63427;49.654;6.596;2023-02-15T09:25:04;44;41;
74880;PMS5003;63427;49.654;6.596;2023-02-15T09:27:29;45;45;
74880;PMS5003;63427;49.654;6.596;2023-02-15T09:29:54;52;47;
74880;PMS5003;63427;49.654;6.596;2023-02-15T09:32:20;44;42;
74880;PMS5003;63427;49.654;6.596;2023-02-15T09:34:45;46;43;
74880;PMS5003;63427;49.654;6.596;2023-02-15T09:37:11;49;46;
74880;PMS5003;63427;49.654;6.596;2023-02-15T09:39:37;46;46;
74880;PMS5003;63427;49.654;6.596;2023-02-15T09:42:05;55;53;
74880;PMS5003;63427;49.654;6.596;2023-02-15T09:44:31;48;48;
74880;PMS5003;63427;49.654;6.596;2023-02-15T09:46:59;43;39;
74880;PMS5003;63427;49.654;6.596;2023-02-15T09:49:20;47;46;
74880;PMS5003;63427;49.654;6.596;2023-02-15T09:51:49;60;53;
74880;PMS5003;63427;49.654;6.596;2023-02-15T09:54:13;48;46;
74880;PMS5003;63427;49.654;6.596;2023-02-15T09:56:36;41;40;
74880;PMS5003;63427;49.654;6.596;2023-02-15T09:59:02;52;50;
74880;PMS5003;63427;49.654;6.596;2023-02-15T10:01:28;41;39;
74880;PMS5003;63427;49.654;6.596;2023-02-15T10:03:54;48;48;
74880;PMS5003;63427;49.654;6.596;2023-02-15T10:06:21;49;48;
74880;PMS5003;63427;49.654;6.596;2023-02-15T10:08:48;48;48;
74880;PMS5003;63427;49.654;6.596;2023-02-15T10:11:10;50;47;
74880;PMS5003;63427;49.654;6.596;2023-02-15T10:13:34;47;46;
74880;PMS5003;63427;49.654;6.596;2023-02-15T10:16:04;52;50;
74880;PMS5003;63427;49.654;6.596;2023-02-15T10:18:31;51;49;
74880;PMS5003;63427;49.654;6.596;2023-02-15T10:20:52;53;51;
74880;PMS5003;63427;49.654;6.596;2023-02-15T10:23:21;49;47;
74880;PMS5003;63427;49.654;6.596;2023-02-15T10:25:42;41;39;
74880;PMS5003;63427;49.654;6.596;2023-02-15T10:28:09;48;47;
74880;PMS5003;63427;49.654;6.596;2023-02-15T10:30:35;55;47;
74880;PMS5003;63427;49.654;6.596;2023-02-15T10:32:59;40;39;
74880;PMS5003;63427;49.654;6.596;2023-02-15T10:35:25;51;49;
74880;PMS5003;63427;49.654;6.596;2023-02-15T10:37:52;47;44;
74880;PMS5003;63427;49.654;6.596;2023-02-15T10:40:16;41;40;
74880;PMS5003;63427;49.654;6.596;2023-02-15T10:42:43;41;39;
74880;PMS5003;63427;49.654;6.596;2023-02-15T10:45:07;43;41;
74880;PMS5003;63427;49.654;6.596;2023-02-15T10:47:34;42;40;
74880;PMS5003;63427;49.654;6.596;2023-02-15T10:50:01;43;43;
74880;PMS5003;63427;49.654;6.596;2023-02-15T10:52:25;47;44;
74880;PMS5003;63427;49.654;6.596;2023-02-15T10:54:48;39;39;
74880;PMS5003;63427;49.654;6.596;2023-02-15T10:57:14;49;45;
74880;PMS5003;63427;49.654;6.596;2023-02-15T10:59:42;52;51;
74880;PMS5003;63427;49.654;6.596;2023-02-15T11:02:04;45;42;
74880;PMS5003;63427;49.654;6.596;2023-02-15T11:04:38;53;50;
74880;PMS5003;63427;49.654;6.596;2023-02-15T11:06:54;49;48;
74880;PMS5003;63427;49.654;6.596;2023-02-15T11:09:20;40;39;
74880;PMS5003;63427;49.654;6.596;2023-02-15T11:11:45;56;55;
74880;PMS5003;63427;49.654;6.596;2023-02-15T11:14:11;48;47;
74880;PMS5003;63427;49.654;6.596;2023-02-15T11:16:36;47;46;
74880;PMS5003;63427;49.654;6.596;2023-02-15T11:19:01;51;50;
74880;PMS5003;63427;49.654;6.596;2023-02-15T11:21:26;52;50;
74880;PMS5003;63427;49.654;6.596;2023-02-15T11:23:52;49;46;
74880;PMS5003;63427;49.654;6.596;2023-02-15T11:26:19;53;49;
74880;PMS5003;63427;49.654;6.596;2023-02-15T11:28:44;46;44;
74880;PMS5003;63427;49.654;6.596;2023-02-15T11:31:12;54;52;
74880;PMS5003;63427;49.654;6.596;2023-02-15T11:33:34;51;50;
74880;PMS5003;63427;49.654;6.596;2023-02-15T11:36:00;48;47;
74880;PMS5003;63427;49.654;6.596;2023-02-15T11:38:26;52;49;
74880;PMS5003;63427;49.654;6.596;2023-02-15T11:40:50;53;52;
74880;PMS5003;63427;49.654;6.596;2023-02-15T11:43:16;49;49;
74880;PMS5003;63427;49.654;6.596;2023-02-15T11:45:41;38;37;
74880;PMS5003;63427;49.654;6.596;2023-02-15T11:48:08;50;48;
74880;PMS5003;63427;49.654;6.596;2023-02-15T11:50:31;51;51;
74880;PMS5003;63427;49.654;6.596;2023-02-15T11:52:57;45;45;
74880;PMS5003;63427;49.654;6.596;2023-02-15T11:55:22;46;45;
74880;PMS5003;63427;49.654;6.596;2023-02-15T11:57:48;48;47;
74880;PMS5003;63427;49.654;6.596;2023-02-15T12:00:14;52;52;
74880;PMS5003;63427;49.654;6.596;2023-02-15T12:02:39;54;51;
74880;PMS5003;63427;49.654;6.596;2023-02-15T12:05:05;45;43;
74880;PMS5003;63427;49.654;6.596;2023-02-15T12:07:30;54;53;
74880;PMS5003;63427;49.654;6.596;2023-02-15T12:09:56;46;44;
74880;PMS5003;63427;49.654;6.596;2023-02-15T12:12:21;54;52;
74880;PMS5003;63427;49.654;6.596;2023-02-15T12:14:46;46;45;
74880;PMS5003;63427;49.654;6.596;2023-02-15T12:17:12;42;42;
74880;PMS5003;63427;49.654;6.596;2023-02-15T12:19:38;50;49;
74880;PMS5003;63427;49.654;6.596;2023-02-15T12:22:03;48;46;
74880;PMS5003;63427;49.654;6.596;2023-02-15T12:24:29;48;48;
74880;PMS5003;63427;49.654;6.596;2023-02-15T12:26:58;45;44;
74880;PMS5003;63427;49.654;6.596;2023-02-15T12:29:19;39;38;
74880;PMS5003;63427;49.654;6.596;2023-02-15T12:31:46;52;51;
74880;PMS5003;63427;49.654;6.596;2023-02-15T12:34:12;48;47;
74880;PMS5003;63427;49.654;6.596;2023-02-15T12:36:40;41;40;
74880;PMS5003;63427;49.654;6.596;2023-02-15T12:39:03;40;39;
74880;PMS5003;63427;49.654;6.596;2023-02-15T12:41:27;46;45;
74880;PMS5003;63427;49.654;6.596;2023-02-15T12:46:20;43;42;
74880;PMS5003;63427;49.654;6.596;2023-02-15T12:48:43;46;46;
74880;PMS5003;63427;49.654;6.596;2023-02-15T12:51:12;41;41;
74880;PMS5003;63427;49.654;6.596;2023-02-15T12:53:35;38;38;
74880;PMS5003;63427;49.654;6.596;2023-02-15T12:56:00;43;42;
74880;PMS5003;63427;49.654;6.596;2023-02-15T12:58:25;44;42;
74880;PMS5003;63427;49.654;6.596;2023-02-15T13:03:17;44;43;
74880;PMS5003;63427;49.654;6.596;2023-02-15T13:05:42;39;39;
74880;PMS5003;63427;49.654;6.596;2023-02-15T13:08:09;52;51;
74880;PMS5003;63427;49.654;6.596;2023-02-15T13:10:34;42;41;
74880;PMS5003;63427;49.654;6.596;2023-02-15T13:12:59;40;39;
74880;PMS5003;63427;49.654;6.596;2023-02-15T13:15:28;38;37;
74880;PMS5003;63427;49.654;6.596;2023-02-15T13:17:50;47;44;
74880;PMS5003;63427;49.654;6.596;2023-02-15T13:20:16;51;50;
74880;PMS5003;63427;49.654;6.596;2023-02-15T13:22:42;44;42;
74880;PMS5003;63427;49.654;6.596;2023-02-15T13:25:09;40;39;
74880;PMS5003;63427;49.654;6.596;2023-02-15T13:27:34;42;42;
74880;PMS5003;63427;49.654;6.596;2023-02-15T13:29:58;39;38;
74880;PMS5003;63427;49.654;6.596;2023-02-15T13:32:26;38;37;
74880;PMS5003;63427;49.654;6.596;2023-02-15T13:34:48;53;52;
74880;PMS5003;63427;49.654;6.596;2023-02-15T13:37:15;54;53;
74880;PMS5003;63427;49.654;6.596;2023-02-15T13:39:40;47;45;
74880;PMS5003;63427;49.654;6.596;2023-02-15T13:42:05;49;49;
74880;PMS5003;63427;49.654;6.596;2023-02-15T13:47:00;37;37;
74880;PMS5003;63427;49.654;6.596;2023-02-15T13:49:25;37;37;
74880;PMS5003;63427;49.654;6.596;2023-02-15T13:51:48;42;41;
74880;PMS5003;63427;49.654;6.596;2023-02-15T13:56:42;38;38;
74880;PMS5003;63427;49.654;6.596;2023-02-15T13:59:13;39;39;
74880;PMS5003;63427;49.654;6.596;2023-02-15T14:01:30;36;34;
74880;PMS5003;63427;49.654;6.596;2023-02-15T14:04:00;42;41;
74880;PMS5003;63427;49.654;6.596;2023-02-15T14:06:26;43;42;
74880;PMS5003;63427;49.654;6.596;2023-02-15T14:08:48;43;42;
74880;PMS5003;63427;49.654;6.596;2023-02-15T14:11:12;38;38;
74880;PMS5003;63427;49.654;6.596;2023-02-15T14:13:41;31;30;
74880;PMS5003;63427;49.654;6.596;2023-02-15T14:16:02;41;40;
74880;PMS5003;63427;49.654;6.596;2023-02-15T14:18:28;38;38;
74880;PMS5003;63427;49.654;6.596;2023-02-15T14:20:56;37;36;
74880;PMS5003;63427;49.654;6.596;2023-02-15T14:23:19;35;35;
74880;PMS5003;63427;49.654;6.596;2023-02-15T14:25:43;40;39;
74880;PMS5003;63427;49.654;6.596;2023-02-15T14:28:08;42;40;
74880;PMS5003;63427;49.654;6.596;2023-02-15T14:30:32;38;37;
74880;PMS5003;63427;49.654;6.596;2023-02-15T14:32:59;35;33;
74880;PMS5003;63427;49.654;6.596;2023-02-15T14:35:23;41;40;
74880;PMS5003;63427;49.654;6.596;2023-02-15T14:37:49;40;40;
74880;PMS5003;63427;49.654;6.596;2023-02-15T14:40:16;34;32;
74880;PMS5003;63427;49.654;6.596;2023-02-15T14:42:39;39;37;
74880;PMS5003;63427;49.654;6.596;2023-02-15T14:45:04;32;32;
74880;PMS5003;63427;49.654;6.596;2023-02-15T14:47:30;43;43;
74880;PMS5003;63427;49.654;6.596;2023-02-15T14:49:54;36;35;
74880;PMS5003;63427;49.654;6.596;2023-02-15T14:52:19;40;39;
74880;PMS5003;63427;49.654;6.596;2023-02-15T14:57:21;38;37;
74880;PMS5003;63427;49.654;6.596;2023-02-15T14:59:36;33;33;
74880;PMS5003;63427;49.654;6.596;2023-02-15T15:02:03;36;35;
74880;PMS5003;63427;49.654;6.596;2023-02-15T15:04:30;42;41;
74880;PMS5003;63427;49.654;6.596;2023-02-15T15:06:57;36;35;
74880;PMS5003;63427;49.654;6.596;2023-02-15T15:09:20;36;36;
74880;PMS5003;63427;49.654;6.596;2023-02-15T15:11:45;39;38;
74880;PMS5003;63427;49.654;6.596;2023-02-15T15:14:09;38;37;
74880;PMS5003;63427;49.654;6.596;2023-02-15T15:19:00;38;37;
74880;PMS5003;63427;49.654;6.596;2023-02-15T15:23:50;41;40;
74880;PMS5003;63427;49.654;6.596;2023-02-15T15:26:22;37;37;
74880;PMS5003;63427;49.654;6.596;2023-02-15T15:31:08;46;44;
74880;PMS5003;63427;49.654;6.596;2023-02-15T15:36:06;37;36;
74880;PMS5003;63427;49.654;6.596;2023-02-15T15:38:27;39;37;
74880;PMS5003;63427;49.654;6.596;2023-02-15T15:40:56;39;38;
74880;PMS5003;63427;49.654;6.596;2023-02-15T15:45:46;39;39;
74880;PMS5003;63427;49.654;6.596;2023-02-15T15:48:11;38;38;
74880;PMS5003;63427;49.654;6.596;2023-02-15T15:50:31;43;42;
74880;PMS5003;63427;49.654;6.596;2023-02-15T15:52:57;45;44;
74880;PMS5003;63427;49.654;6.596;2023-02-15T15:55:22;44;42;
74880;PMS5003;63427;49.654;6.596;2023-02-15T15:57:47;56;54;
74880;PMS5003;63427;49.654;6.596;2023-02-15T16:02:37;69;64;
74880;PMS5003;63427;49.654;6.596;2023-02-15T16:05:06;127;120;
74880;PMS5003;63427;49.654;6.596;2023-02-15T16:07:28;86;81;
74880;PMS5003;63427;49.654;6.596;2023-02-15T16:09:55;48;47;
74880;PMS5003;63427;49.654;6.596;2023-02-15T16:12:19;49;47;
74880;PMS5003;63427;49.654;6.596;2023-02-15T16:14:45;34;33;
74880;PMS5003;63427;49.654;6.596;2023-02-15T16:17:14;35;33;
74880;PMS5003;63427;49.654;6.596;2023-02-15T16:19:37;42;42;
74880;PMS5003;63427;49.654;6.596;2023-02-15T16:22:02;39;39;
74880;PMS5003;63427;49.654;6.596;2023-02-15T16:24:37;48;48;
74880;PMS5003;63427;49.654;6.596;2023-02-15T16:26:58;46;46;
74880;PMS5003;63427;49.654;6.596;2023-02-15T16:29:23;40;39;
74880;PMS5003;63427;49.654;6.596;2023-02-15T16:31:43;43;43;
74880;PMS5003;63427;49.654;6.596;2023-02-15T16:34:09;68;68;
74880;PMS5003;63427;49.654;6.596;2023-02-15T16:36:34;61;56;
74880;PMS5003;63427;49.654;6.596;2023-02-15T16:41:26;55;54;